Airfield :
LOGIN :

Register | Disclaimer

   EN    FR    IT 

 










Legend :    VFR   Marginal VFR   IFR   Intensive IFR   Very Intensive IFR
Visi :
Ceiling :
>= 8 km
>= 3000ft
5 to 8 km
1000 to 3000 ft
1500m to 5 km
500 to 1000 ft
800 to 1500m
200 to 500 ft
< 800m
< 200 ft
Symbols :   Thunderstorms  Fog  Heavy snow  Heavy precipitations  Wind > 20 kt
SIGMETs :     Misc.  Thunderstorms  Icing  Turbulence  Mountain Waves  Volcanic Ashes






- Airport Elevation : 218 ft
- IATA code : LBG


LFPB - Paris / Le Bourget

CURRENT METAR :
  • 170630Z AUTO 28006KT 250V310 9999 FEW015/// SCT043/// BKN049/// ///TCU 05/04 Q1020 BECMG BKN035

EXPIRED METARs :
  • 170600Z AUTO 29005KT 250V310 9999 FEW022/// BKN037/// OVC043/// ///TCU 05/04 Q1020 TEMPO 3000 BR BECMG BKN035
  • 170530Z AUTO 29006KT 260V320 9999 -RA FEW016/// BKN035/// OVC046/// ///TCU 05/04 Q1020 BECMG BKN040
  • 170500Z AUTO 27007KT 9999 FEW019/// OVC034/// ///TCU 05/04 Q1020 TEMPO BKN006
  • 170430Z AUTO 26005KT 8000 FEW014 BKN037 BKN046 04/04 Q1020 TEMPO BKN006
  • 170400Z AUTO 26005KT 9000 FEW028/// BKN035/// OVC056/// ///TCU 04/04 Q1019 TEMPO BKN006

TAF TAF LFPB
Valid from the 17 at 06:00 until the 18 at 06:00 UTC


170500Z 1706/1806 30008KT 8000 BKN035
PROB40
TEMPO 1706/1707 3000 BR
PROB40 1721/1806 3000 BR
PROB30
TEMPO 1801/1806 BKN004
PROB30
TEMPO 1805/1806 0500 BCFG
ATIS : +33 1 48 62 43 92



MET'MAP, your aeronautical weather chart ! - Copyright ORBIFLY December 2007 - Disclaimer

ORBIFLY MET'MAP TEAM :

Programming & Development : Alexandra Zaïnal
Concept & original design : Baudouin d'Aumeries
Assistance for programming : Marc-Olivier Méhu
Technical & hardware support : Manuel Goepfert

Contact : metmap@orbifly.com




SOURCES & CREDITS :

   NOAA